sensor_id;sensor_type;location;lat;lon;timestamp;P1;durP1;ratioP1;P2;durP2;ratioP2
36191;SDS011;22233;42.708;23.360;2023-07-31T00:00:57;2.75;;;2.53;;
36191;SDS011;22233;42.708;23.360;2023-07-31T00:03:23;3.00;;;2.67;;
36191;SDS011;22233;42.708;23.360;2023-07-31T00:05:48;3.40;;;3.10;;
36191;SDS011;22233;42.708;23.360;2023-07-31T00:08:14;4.28;;;3.08;;
36191;SDS011;22233;42.708;23.360;2023-07-31T00:10:39;3.55;;;2.88;;
36191;SDS011;22233;42.708;23.360;2023-07-31T00:13:04;3.30;;;3.00;;
36191;SDS011;22233;42.708;23.360;2023-07-31T00:15:30;3.30;;;2.50;;
36191;SDS011;22233;42.708;23.360;2023-07-31T00:17:55;3.35;;;3.05;;
36191;SDS011;22233;42.708;23.360;2023-07-31T00:20:21;3.00;;;2.70;;
36191;SDS011;22233;42.708;23.360;2023-07-31T00:22:46;3.25;;;3.03;;
36191;SDS011;22233;42.708;23.360;2023-07-31T00:25:11;3.90;;;3.00;;
36191;SDS011;22233;42.708;23.360;2023-07-31T00:27:37;3.20;;;2.90;;
36191;SDS011;22233;42.708;23.360;2023-07-31T00:30:02;3.22;;;2.92;;
36191;SDS011;22233;42.708;23.360;2023-07-31T00:32:28;3.20;;;2.90;;
36191;SDS011;22233;42.708;23.360;2023-07-31T00:34:53;4.07;;;2.83;;
36191;SDS011;22233;42.708;23.360;2023-07-31T00:37:19;4.63;;;3.08;;
36191;SDS011;22233;42.708;23.360;2023-07-31T00:39:44;3.30;;;3.08;;
36191;SDS011;22233;42.708;23.360;2023-07-31T00:42:10;3.63;;;3.17;;
36191;SDS011;22233;42.708;23.360;2023-07-31T00:44:35;3.72;;;3.33;;
36191;SDS011;22233;42.708;23.360;2023-07-31T00:47:00;4.55;;;3.85;;
36191;SDS011;22233;42.708;23.360;2023-07-31T00:49:26;4.65;;;4.13;;
36191;SDS011;22233;42.708;23.360;2023-07-31T00:51:52;4.13;;;3.80;;
36191;SDS011;22233;42.708;23.360;2023-07-31T00:54:19;4.32;;;3.92;;
36191;SDS011;22233;42.708;23.360;2023-07-31T00:56:47;4.70;;;3.60;;
36191;SDS011;22233;42.708;23.360;2023-07-31T00:59:13;4.63;;;4.22;;
36191;SDS011;22233;42.708;23.360;2023-07-31T01:01:39;4.90;;;4.28;;
36191;SDS011;22233;42.708;23.360;2023-07-31T01:04:05;4.53;;;4.13;;
36191;SDS011;22233;42.708;23.360;2023-07-31T01:06:44;5.13;;;4.63;;
36191;SDS011;22233;42.708;23.360;2023-07-31T01:09:29;6.18;;;5.30;;
36191;SDS011;22233;42.708;23.360;2023-07-31T01:11:57;6.45;;;5.72;;
36191;SDS011;22233;42.708;23.360;2023-07-31T01:14:25;7.00;;;6.32;;
36191;SDS011;22233;42.708;23.360;2023-07-31T01:16:50;7.53;;;6.78;;
36191;SDS011;22233;42.708;23.360;2023-07-31T01:19:16;7.57;;;6.88;;
36191;SDS011;22233;42.708;23.360;2023-07-31T01:27:28;9.90;;;9.05;;
36191;SDS011;22233;42.708;23.360;2023-07-31T01:33:02;11.32;;;10.32;;
36191;SDS011;22233;42.708;23.360;2023-07-31T01:35:32;12.38;;;10.80;;
36191;SDS011;22233;42.708;23.360;2023-07-31T01:37:59;12.27;;;11.18;;
36191;SDS011;22233;42.708;23.360;2023-07-31T01:40:24;12.85;;;11.57;;
36191;SDS011;22233;42.708;23.360;2023-07-31T01:42:50;14.55;;;13.15;;
36191;SDS011;22233;42.708;23.360;2023-07-31T01:45:15;13.80;;;12.15;;
36191;SDS011;22233;42.708;23.360;2023-07-31T01:47:40;14.75;;;12.95;;
36191;SDS011;22233;42.708;23.360;2023-07-31T01:50:06;14.27;;;12.88;;
36191;SDS011;22233;42.708;23.360;2023-07-31T01:52:31;14.45;;;13.15;;
36191;SDS011;22233;42.708;23.360;2023-07-31T01:54:57;15.65;;;14.15;;
36191;SDS011;22233;42.708;23.360;2023-07-31T01:57:22;15.63;;;14.23;;
36191;SDS011;22233;42.708;23.360;2023-07-31T01:59:48;16.58;;;14.98;;
36191;SDS011;22233;42.708;23.360;2023-07-31T02:02:13;16.75;;;15.15;;
36191;SDS011;22233;42.708;23.360;2023-07-31T02:04:39;16.88;;;15.18;;
36191;SDS011;22233;42.708;23.360;2023-07-31T02:07:05;16.48;;;14.93;;
36191;SDS011;22233;42.708;23.360;2023-07-31T02:09:31;16.80;;;15.05;;
36191;SDS011;22233;42.708;23.360;2023-07-31T02:11:56;16.35;;;14.85;;
36191;SDS011;22233;42.708;23.360;2023-07-31T02:14:22;16.23;;;14.73;;
36191;SDS011;22233;42.708;23.360;2023-07-31T02:16:47;18.30;;;16.52;;
36191;SDS011;22233;42.708;23.360;2023-07-31T02:19:13;18.73;;;16.40;;
36191;SDS011;22233;42.708;23.360;2023-07-31T02:21:38;19.27;;;17.00;;
36191;SDS011;22233;42.708;23.360;2023-07-31T02:24:03;18.23;;;16.42;;
36191;SDS011;22233;42.708;23.360;2023-07-31T02:26:29;20.35;;;18.33;;
36191;SDS011;22233;42.708;23.360;2023-07-31T02:28:54;18.42;;;16.63;;
36191;SDS011;22233;42.708;23.360;2023-07-31T02:31:20;18.48;;;16.67;;
36191;SDS011;22233;42.708;23.360;2023-07-31T02:33:45;19.23;;;17.33;;
36191;SDS011;22233;42.708;23.360;2023-07-31T02:36:11;22.23;;;18.73;;
36191;SDS011;22233;42.708;23.360;2023-07-31T02:38:36;19.25;;;17.30;;
36191;SDS011;22233;42.708;23.360;2023-07-31T02:41:01;18.55;;;16.65;;
36191;SDS011;22233;42.708;23.360;2023-07-31T02:43:27;20.17;;;18.17;;
36191;SDS011;22233;42.708;23.360;2023-07-31T02:45:52;20.35;;;18.35;;
36191;SDS011;22233;42.708;23.360;2023-07-31T02:48:18;20.95;;;19.02;;
36191;SDS011;22233;42.708;23.360;2023-07-31T02:50:44;21.08;;;19.13;;
36191;SDS011;22233;42.708;23.360;2023-07-31T02:53:10;21.85;;;19.85;;
36191;SDS011;22233;42.708;23.360;2023-07-31T02:55:36;20.73;;;18.70;;
36191;SDS011;22233;42.708;23.360;2023-07-31T02:58:01;19.75;;;17.83;;
36191;SDS011;22233;42.708;23.360;2023-07-31T03:00:27;20.95;;;18.85;;
36191;SDS011;22233;42.708;23.360;2023-07-31T03:02:53;21.17;;;19.08;;
36191;SDS011;22233;42.708;23.360;2023-07-31T03:05:18;20.90;;;19.00;;
36191;SDS011;22233;42.708;23.360;2023-07-31T03:07:43;22.00;;;19.73;;
36191;SDS011;22233;42.708;23.360;2023-07-31T03:10:09;20.52;;;18.50;;
36191;SDS011;22233;42.708;23.360;2023-07-31T03:12:34;20.45;;;18.58;;
36191;SDS011;22233;42.708;23.360;2023-07-31T03:15:00;21.35;;;19.25;;
36191;SDS011;22233;42.708;23.360;2023-07-31T03:17:25;20.95;;;18.77;;
36191;SDS011;22233;42.708;23.360;2023-07-31T03:19:50;20.80;;;18.70;;
36191;SDS011;22233;42.708;23.360;2023-07-31T03:22:16;21.00;;;19.10;;
36191;SDS011;22233;42.708;23.360;2023-07-31T03:24:41;20.25;;;18.35;;
36191;SDS011;22233;42.708;23.360;2023-07-31T03:27:07;21.58;;;19.30;;
36191;SDS011;22233;42.708;23.360;2023-07-31T03:29:32;21.88;;;19.67;;
36191;SDS011;22233;42.708;23.360;2023-07-31T03:31:57;20.42;;;18.42;;
36191;SDS011;22233;42.708;23.360;2023-07-31T03:34:24;20.02;;;18.10;;
36191;SDS011;22233;42.708;23.360;2023-07-31T03:36:49;22.30;;;20.10;;
36191;SDS011;22233;42.708;23.360;2023-07-31T03:39:14;20.60;;;18.60;;
36191;SDS011;22233;42.708;23.360;2023-07-31T03:41:40;20.90;;;18.80;;
36191;SDS011;22233;42.708;23.360;2023-07-31T03:44:05;20.95;;;18.92;;
36191;SDS011;22233;42.708;23.360;2023-07-31T03:46:31;21.27;;;19.15;;
36191;SDS011;22233;42.708;23.360;2023-07-31T03:48:56;20.67;;;18.67;;
36191;SDS011;22233;42.708;23.360;2023-07-31T03:51:22;22.48;;;20.27;;
36191;SDS011;22233;42.708;23.360;2023-07-31T03:53:47;21.27;;;19.27;;
36191;SDS011;22233;42.708;23.360;2023-07-31T03:56:13;21.45;;;19.35;;
36191;SDS011;22233;42.708;23.360;2023-07-31T03:58:38;21.33;;;19.33;;
36191;SDS011;22233;42.708;23.360;2023-07-31T04:01:04;21.23;;;19.02;;
36191;SDS011;22233;42.708;23.360;2023-07-31T04:03:29;22.25;;;20.08;;
36191;SDS011;22233;42.708;23.360;2023-07-31T04:05:55;23.00;;;20.60;;
36191;SDS011;22233;42.708;23.360;2023-07-31T04:08:21;22.20;;;20.00;;
36191;SDS011;22233;42.708;23.360;2023-07-31T04:10:47;22.58;;;20.38;;
36191;SDS011;22233;42.708;23.360;2023-07-31T04:13:12;20.48;;;18.35;;
36191;SDS011;22233;42.708;23.360;2023-07-31T04:15:38;20.92;;;18.92;;
36191;SDS011;22233;42.708;23.360;2023-07-31T04:18:04;23.70;;;20.33;;
36191;SDS011;22233;42.708;23.360;2023-07-31T04:20:29;23.20;;;20.90;;
36191;SDS011;22233;42.708;23.360;2023-07-31T04:22:55;24.00;;;21.50;;
36191;SDS011;22233;42.708;23.360;2023-07-31T04:25:20;23.88;;;21.42;;
36191;SDS011;22233;42.708;23.360;2023-07-31T04:27:45;22.38;;;20.27;;
36191;SDS011;22233;42.708;23.360;2023-07-31T04:30:11;22.85;;;20.55;;
36191;SDS011;22233;42.708;23.360;2023-07-31T04:32:36;23.35;;;21.10;;
36191;SDS011;22233;42.708;23.360;2023-07-31T04:35:02;23.70;;;21.25;;
36191;SDS011;22233;42.708;23.360;2023-07-31T04:37:28;24.80;;;22.20;;
36191;SDS011;22233;42.708;23.360;2023-07-31T04:39:53;23.33;;;20.25;;
36191;SDS011;22233;42.708;23.360;2023-07-31T04:42:18;22.73;;;20.42;;
36191;SDS011;22233;42.708;23.360;2023-07-31T04:44:44;22.83;;;20.45;;
36191;SDS011;22233;42.708;23.360;2023-07-31T04:47:09;22.98;;;20.65;;
36191;SDS011;22233;42.708;23.360;2023-07-31T04:49:35;21.95;;;19.85;;
36191;SDS011;22233;42.708;23.360;2023-07-31T04:52:00;21.55;;;19.35;;
36191;SDS011;22233;42.708;23.360;2023-07-31T04:54:26;21.48;;;19.25;;
36191;SDS011;22233;42.708;23.360;2023-07-31T04:56:51;20.85;;;18.83;;
36191;SDS011;22233;42.708;23.360;2023-07-31T04:59:17;21.98;;;19.77;;
36191;SDS011;22233;42.708;23.360;2023-07-31T05:01:43;21.58;;;19.45;;
36191;SDS011;22233;42.708;23.360;2023-07-31T05:04:12;20.98;;;18.77;;
36191;SDS011;22233;42.708;23.360;2023-07-31T05:06:39;22.95;;;20.35;;
36191;SDS011;22233;42.708;23.360;2023-07-31T05:09:04;22.20;;;20.00;;
36191;SDS011;22233;42.708;23.360;2023-07-31T05:11:29;21.35;;;19.13;;
36191;SDS011;22233;42.708;23.360;2023-07-31T05:13:55;21.30;;;19.15;;
36191;SDS011;22233;42.708;23.360;2023-07-31T05:16:20;21.27;;;19.05;;
36191;SDS011;22233;42.708;23.360;2023-07-31T05:18:46;22.02;;;19.85;;
36191;SDS011;22233;42.708;23.360;2023-07-31T05:21:11;21.08;;;18.90;;
36191;SDS011;22233;42.708;23.360;2023-07-31T05:23:36;19.08;;;17.27;;
36191;SDS011;22233;42.708;23.360;2023-07-31T05:26:03;18.27;;;16.48;;
36191;SDS011;22233;42.708;23.360;2023-07-31T05:28:31;17.55;;;15.95;;
36191;SDS011;22233;42.708;23.360;2023-07-31T05:30:59;17.23;;;15.52;;
36191;SDS011;22233;42.708;23.360;2023-07-31T05:33:25;17.80;;;16.08;;
36191;SDS011;22233;42.708;23.360;2023-07-31T05:35:51;19.42;;;17.08;;
36191;SDS011;22233;42.708;23.360;2023-07-31T05:38:16;17.48;;;15.65;;
36191;SDS011;22233;42.708;23.360;2023-07-31T05:40:42;16.77;;;15.20;;
36191;SDS011;22233;42.708;23.360;2023-07-31T05:43:07;15.85;;;14.23;;
36191;SDS011;22233;42.708;23.360;2023-07-31T05:45:33;15.80;;;14.30;;
36191;SDS011;22233;42.708;23.360;2023-07-31T05:47:59;15.50;;;13.95;;
36191;SDS011;22233;42.708;23.360;2023-07-31T05:50:24;15.50;;;12.68;;
36191;SDS011;22233;42.708;23.360;2023-07-31T05:52:49;12.40;;;11.40;;
36191;SDS011;22233;42.708;23.360;2023-07-31T05:55:15;13.98;;;12.57;;
36191;SDS011;22233;42.708;23.360;2023-07-31T05:57:41;12.48;;;11.25;;
36191;SDS011;22233;42.708;23.360;2023-07-31T06:00:07;11.55;;;10.45;;
36191;SDS011;22233;42.708;23.360;2023-07-31T06:02:33;11.40;;;10.40;;
36191;SDS011;22233;42.708;23.360;2023-07-31T06:05:01;10.68;;;9.77;;
36191;SDS011;22233;42.708;23.360;2023-07-31T06:07:29;10.90;;;9.90;;
36191;SDS011;22233;42.708;23.360;2023-07-31T06:09:54;11.35;;;10.23;;
36191;SDS011;22233;42.708;23.360;2023-07-31T06:12:20;9.50;;;8.60;;
36191;SDS011;22233;42.708;23.360;2023-07-31T06:14:46;9.13;;;8.32;;
36191;SDS011;22233;42.708;23.360;2023-07-31T06:17:11;8.65;;;7.85;;
36191;SDS011;22233;42.708;23.360;2023-07-31T06:19:36;8.13;;;7.15;;
36191;SDS011;22233;42.708;23.360;2023-07-31T06:22:02;9.20;;;7.28;;
36191;SDS011;22233;42.708;23.360;2023-07-31T06:24:28;8.35;;;7.55;;
36191;SDS011;22233;42.708;23.360;2023-07-31T06:26:53;7.65;;;6.25;;
36191;SDS011;22233;42.708;23.360;2023-07-31T06:29:19;7.15;;;6.55;;
36191;SDS011;22233;42.708;23.360;2023-07-31T06:31:45;6.80;;;5.97;;
36191;SDS011;22233;42.708;23.360;2023-07-31T06:34:11;6.72;;;6.05;;
36191;SDS011;22233;42.708;23.360;2023-07-31T06:36:36;6.50;;;5.60;;
36191;SDS011;22233;42.708;23.360;2023-07-31T06:39:02;8.25;;;6.38;;
36191;SDS011;22233;42.708;23.360;2023-07-31T06:41:27;6.90;;;5.60;;
36191;SDS011;22233;42.708;23.360;2023-07-31T06:43:52;6.43;;;5.78;;
36191;SDS011;22233;42.708;23.360;2023-07-31T06:46:18;5.75;;;5.13;;
36191;SDS011;22233;42.708;23.360;2023-07-31T06:48:44;5.80;;;5.20;;
36191;SDS011;22233;42.708;23.360;2023-07-31T06:51:09;8.30;;;5.60;;
36191;SDS011;22233;42.708;23.360;2023-07-31T06:53:34;6.85;;;5.20;;
36191;SDS011;22233;42.708;23.360;2023-07-31T06:56:00;9.02;;;5.18;;
36191;SDS011;22233;42.708;23.360;2023-07-31T06:58:25;7.20;;;4.90;;
36191;SDS011;22233;42.708;23.360;2023-07-31T07:00:51;7.70;;;4.82;;
36191;SDS011;22233;42.708;23.360;2023-07-31T07:03:19;9.30;;;5.20;;
36191;SDS011;22233;42.708;23.360;2023-07-31T07:05:45;7.35;;;4.75;;
36191;SDS011;22233;42.708;23.360;2023-07-31T07:08:10;5.22;;;4.43;;
36191;SDS011;22233;42.708;23.360;2023-07-31T07:10:36;5.72;;;4.80;;
36191;SDS011;22233;42.708;23.360;2023-07-31T07:13:02;6.13;;;4.90;;
36191;SDS011;22233;42.708;23.360;2023-07-31T07:15:27;5.88;;;4.72;;
36191;SDS011;22233;42.708;23.360;2023-07-31T07:17:53;5.43;;;4.30;;
36191;SDS011;22233;42.708;23.360;2023-07-31T07:20:19;4.82;;;4.32;;
36191;SDS011;22233;42.708;23.360;2023-07-31T07:22:45;4.68;;;4.28;;
36191;SDS011;22233;42.708;23.360;2023-07-31T07:25:10;6.25;;;4.18;;
36191;SDS011;22233;42.708;23.360;2023-07-31T07:27:36;5.22;;;4.40;;
36191;SDS011;22233;42.708;23.360;2023-07-31T07:30:01;5.60;;;4.57;;
36191;SDS011;22233;42.708;23.360;2023-07-31T07:32:26;7.28;;;4.30;;
36191;SDS011;22233;42.708;23.360;2023-07-31T07:34:52;4.60;;;4.20;;
36191;SDS011;22233;42.708;23.360;2023-07-31T07:37:17;4.68;;;4.22;;
36191;SDS011;22233;42.708;23.360;2023-07-31T07:39:43;5.53;;;4.65;;
36191;SDS011;22233;42.708;23.360;2023-07-31T07:42:08;5.30;;;4.22;;
36191;SDS011;22233;42.708;23.360;2023-07-31T07:44:34;4.05;;;3.75;;
36191;SDS011;22233;42.708;23.360;2023-07-31T07:46:59;9.57;;;4.50;;
36191;SDS011;22233;42.708;23.360;2023-07-31T07:49:25;4.40;;;3.88;;
36191;SDS011;22233;42.708;23.360;2023-07-31T07:51:50;5.35;;;3.65;;
36191;SDS011;22233;42.708;23.360;2023-07-31T07:54:15;4.82;;;3.55;;
36191;SDS011;22233;42.708;23.360;2023-07-31T07:56:46;4.38;;;3.38;;
36191;SDS011;22233;42.708;23.360;2023-07-31T07:59:11;5.20;;;2.90;;
36191;SDS011;22233;42.708;23.360;2023-07-31T08:01:36;4.25;;;3.60;;
36191;SDS011;22233;42.708;23.360;2023-07-31T08:04:02;5.05;;;3.40;;
36191;SDS011;22233;42.708;23.360;2023-07-31T08:06:27;6.68;;;3.50;;
36191;SDS011;22233;42.708;23.360;2023-07-31T08:08:54;4.00;;;3.55;;
36191;SDS011;22233;42.708;23.360;2023-07-31T08:11:20;4.07;;;3.40;;
36191;SDS011;22233;42.708;23.360;2023-07-31T08:13:47;3.60;;;3.30;;
36191;SDS011;22233;42.708;23.360;2023-07-31T08:16:12;4.03;;;3.63;;
36191;SDS011;22233;42.708;23.360;2023-07-31T08:18:37;5.40;;;3.35;;
36191;SDS011;22233;42.708;23.360;2023-07-31T08:21:03;4.35;;;3.25;;
36191;SDS011;22233;42.708;23.360;2023-07-31T08:23:28;6.97;;;4.35;;
36191;SDS011;22233;42.708;23.360;2023-07-31T08:25:54;4.95;;;3.25;;
36191;SDS011;22233;42.708;23.360;2023-07-31T08:28:19;4.10;;;3.33;;
36191;SDS011;22233;42.708;23.360;2023-07-31T08:30:44;5.93;;;3.35;;
36191;SDS011;22233;42.708;23.360;2023-07-31T08:33:10;3.70;;;3.30;;
36191;SDS011;22233;42.708;23.360;2023-07-31T08:35:36;4.97;;;3.20;;
36191;SDS011;22233;42.708;23.360;2023-07-31T08:38:01;3.47;;;3.10;;
36191;SDS011;22233;42.708;23.360;2023-07-31T08:40:27;7.85;;;3.05;;
36191;SDS011;22233;42.708;23.360;2023-07-31T08:42:54;6.03;;;3.35;;
36191;SDS011;22233;42.708;23.360;2023-07-31T08:45:22;4.53;;;3.38;;
36191;SDS011;22233;42.708;23.360;2023-07-31T08:47:48;4.68;;;3.05;;
36191;SDS011;22233;42.708;23.360;2023-07-31T08:50:17;3.92;;;3.35;;
36191;SDS011;22233;42.708;23.360;2023-07-31T08:52:45;5.90;;;3.22;;
36191;SDS011;22233;42.708;23.360;2023-07-31T08:55:12;3.85;;;3.53;;
36191;SDS011;22233;42.708;23.360;2023-07-31T08:57:38;5.38;;;3.60;;
36191;SDS011;22233;42.708;23.360;2023-07-31T09:00:04;3.20;;;2.60;;
36191;SDS011;22233;42.708;23.360;2023-07-31T09:05:00;4.78;;;2.83;;
36191;SDS011;22233;42.708;23.360;2023-07-31T09:07:27;5.25;;;3.10;;
36191;SDS011;22233;42.708;23.360;2023-07-31T09:09:54;4.30;;;2.97;;
36191;SDS011;22233;42.708;23.360;2023-07-31T09:12:19;3.70;;;3.08;;
36191;SDS011;22233;42.708;23.360;2023-07-31T09:14:45;5.82;;;3.10;;
36191;SDS011;22233;42.708;23.360;2023-07-31T09:17:12;6.05;;;3.15;;
36191;SDS011;22233;42.708;23.360;2023-07-31T09:19:37;2.92;;;2.65;;
36191;SDS011;22233;42.708;23.360;2023-07-31T09:22:03;3.30;;;2.88;;
36191;SDS011;22233;42.708;23.360;2023-07-31T09:24:32;4.28;;;3.60;;
36191;SDS011;22233;42.708;23.360;2023-07-31T09:26:59;5.28;;;3.40;;
36191;SDS011;22233;42.708;23.360;2023-07-31T09:29:26;2.97;;;2.67;;
36191;SDS011;22233;42.708;23.360;2023-07-31T09:31:53;3.45;;;3.03;;
36191;SDS011;22233;42.708;23.360;2023-07-31T09:34:19;3.57;;;2.97;;
36191;SDS011;22233;42.708;23.360;2023-07-31T09:36:53;3.25;;;2.90;;
36191;SDS011;22233;42.708;23.360;2023-07-31T09:39:18;3.30;;;2.83;;
36191;SDS011;22233;42.708;23.360;2023-07-31T09:41:47;4.40;;;3.17;;
36191;SDS011;22233;42.708;23.360;2023-07-31T09:44:18;3.70;;;2.55;;
36191;SDS011;22233;42.708;23.360;2023-07-31T09:46:43;4.07;;;2.83;;
36191;SDS011;22233;42.708;23.360;2023-07-31T09:49:12;4.55;;;3.05;;
36191;SDS011;22233;42.708;23.360;2023-07-31T09:51:40;3.08;;;2.55;;
36191;SDS011;22233;42.708;23.360;2023-07-31T09:54:13;2.85;;;2.30;;
36191;SDS011;22233;42.708;23.360;2023-07-31T09:56:44;3.17;;;2.50;;
36191;SDS011;22233;42.708;23.360;2023-07-31T09:59:12;4.00;;;2.40;;
36191;SDS011;22233;42.708;23.360;2023-07-31T10:01:43;2.58;;;2.38;;
36191;SDS011;22233;42.708;23.360;2023-07-31T10:04:11;2.65;;;2.45;;
36191;SDS011;22233;42.708;23.360;2023-07-31T10:06:38;2.20;;;2.00;;
36191;SDS011;22233;42.708;23.360;2023-07-31T10:09:05;5.10;;;2.40;;
36191;SDS011;22233;42.708;23.360;2023-07-31T10:11:33;3.50;;;2.20;;
36191;SDS011;22233;42.708;23.360;2023-07-31T10:14:03;2.22;;;2.03;;
36191;SDS011;22233;42.708;23.360;2023-07-31T10:16:31;2.60;;;2.00;;
36191;SDS011;22233;42.708;23.360;2023-07-31T10:18:56;2.50;;;1.90;;
36191;SDS011;22233;42.708;23.360;2023-07-31T10:21:23;2.80;;;2.15;;
36191;SDS011;22233;42.708;23.360;2023-07-31T10:23:48;2.10;;;1.90;;
36191;SDS011;22233;42.708;23.360;2023-07-31T10:28:42;2.70;;;1.90;;
36191;SDS011;22233;42.708;23.360;2023-07-31T10:31:09;4.43;;;1.90;;
36191;SDS011;22233;42.708;23.360;2023-07-31T10:33:35;2.03;;;1.80;;
36191;SDS011;22233;42.708;23.360;2023-07-31T10:36:13;2.70;;;2.03;;
36191;SDS011;22233;42.708;23.360;2023-07-31T10:38:42;3.45;;;2.05;;
36191;SDS011;22233;42.708;23.360;2023-07-31T10:41:08;3.85;;;1.95;;
36191;SDS011;22233;42.708;23.360;2023-07-31T10:43:35;2.42;;;2.10;;
36191;SDS011;22233;42.708;23.360;2023-07-31T10:48:33;2.30;;;1.90;;
36191;SDS011;22233;42.708;23.360;2023-07-31T10:51:01;2.00;;;1.80;;
36191;SDS011;22233;42.708;23.360;2023-07-31T10:53:33;3.03;;;1.90;;
36191;SDS011;22233;42.708;23.360;2023-07-31T10:56:02;2.25;;;1.90;;
36191;SDS011;22233;42.708;23.360;2023-07-31T10:58:29;3.63;;;2.00;;
36191;SDS011;22233;42.708;23.360;2023-07-31T11:05:52;1.95;;;1.58;;
36191;SDS011;22233;42.708;23.360;2023-07-31T11:08:24;2.83;;;1.75;;
36191;SDS011;22233;42.708;23.360;2023-07-31T11:13:26;2.20;;;1.88;;
36191;SDS011;22233;42.708;23.360;2023-07-31T11:15:52;3.05;;;1.73;;
36191;SDS011;22233;42.708;23.360;2023-07-31T11:18:17;4.03;;;1.50;;
36191;SDS011;22233;42.708;23.360;2023-07-31T11:20:43;4.43;;;1.55;;
36191;SDS011;22233;42.708;23.360;2023-07-31T11:23:09;3.72;;;1.58;;
36191;SDS011;22233;42.708;23.360;2023-07-31T11:25:35;3.65;;;1.85;;
36191;SDS011;22233;42.708;23.360;2023-07-31T11:28:06;3.33;;;1.60;;
36191;SDS011;22233;42.708;23.360;2023-07-31T11:30:32;3.10;;;1.80;;
36191;SDS011;22233;42.708;23.360;2023-07-31T11:32:59;3.28;;;1.80;;
36191;SDS011;22233;42.708;23.360;2023-07-31T11:35:26;2.33;;;1.40;;
36191;SDS011;22233;42.708;23.360;2023-07-31T11:37:51;2.95;;;1.63;;
36191;SDS011;22233;42.708;23.360;2023-07-31T11:40:17;2.90;;;1.58;;
36191;SDS011;22233;42.708;23.360;2023-07-31T11:42:43;2.22;;;2.00;;
36191;SDS011;22233;42.708;23.360;2023-07-31T11:45:08;4.00;;;2.20;;
36191;SDS011;22233;42.708;23.360;2023-07-31T11:47:35;2.67;;;2.42;;
36191;SDS011;22233;42.708;23.360;2023-07-31T11:50:03;3.60;;;2.63;;
36191;SDS011;22233;42.708;23.360;2023-07-31T11:52:30;3.67;;;2.42;;
36191;SDS011;22233;42.708;23.360;2023-07-31T11:55:02;8.77;;;3.45;;
36191;SDS011;22233;42.708;23.360;2023-07-31T11:57:28;2.42;;;2.22;;
36191;SDS011;22233;42.708;23.360;2023-07-31T11:59:54;2.38;;;2.17;;
36191;SDS011;22233;42.708;23.360;2023-07-31T12:02:21;3.10;;;2.80;;
36191;SDS011;22233;42.708;23.360;2023-07-31T12:04:47;3.20;;;1.83;;
36191;SDS011;22233;42.708;23.360;2023-07-31T12:07:13;3.63;;;2.10;;
36191;SDS011;22233;42.708;23.360;2023-07-31T12:09:38;2.45;;;2.00;;
36191;SDS011;22233;42.708;23.360;2023-07-31T12:12:19;2.72;;;1.90;;
36191;SDS011;22233;42.708;23.360;2023-07-31T12:14:48;2.85;;;1.95;;
36191;SDS011;22233;42.708;23.360;2023-07-31T12:17:15;2.80;;;2.47;;
36191;SDS011;22233;42.708;23.360;2023-07-31T12:19:41;4.20;;;3.13;;
36191;SDS011;22233;42.708;23.360;2023-07-31T12:22:13;4.90;;;4.40;;
36191;SDS011;22233;42.708;23.360;2023-07-31T12:24:43;4.78;;;4.22;;
36191;SDS011;22233;42.708;23.360;2023-07-31T12:27:13;4.65;;;3.97;;
36191;SDS011;22233;42.708;23.360;2023-07-31T12:29:41;5.05;;;3.92;;
36191;SDS011;22233;42.708;23.360;2023-07-31T12:32:24;5.65;;;4.15;;
36191;SDS011;22233;42.708;23.360;2023-07-31T12:34:50;7.10;;;5.07;;
36191;SDS011;22233;42.708;23.360;2023-07-31T12:37:16;6.25;;;4.80;;
36191;SDS011;22233;42.708;23.360;2023-07-31T12:39:42;5.30;;;4.80;;
36191;SDS011;22233;42.708;23.360;2023-07-31T12:42:08;5.72;;;4.65;;
36191;SDS011;22233;42.708;23.360;2023-07-31T12:44:33;5.70;;;4.65;;
36191;SDS011;22233;42.708;23.360;2023-07-31T12:46:59;5.13;;;4.72;;
36191;SDS011;22233;42.708;23.360;2023-07-31T12:49:24;7.80;;;5.22;;
36191;SDS011;22233;42.708;23.360;2023-07-31T12:51:49;5.68;;;4.95;;
36191;SDS011;22233;42.708;23.360;2023-07-31T12:54:15;6.43;;;5.05;;
36191;SDS011;22233;42.708;23.360;2023-07-31T12:56:40;7.30;;;5.18;;
36191;SDS011;22233;42.708;23.360;2023-07-31T12:59:06;6.82;;;5.43;;
36191;SDS011;22233;42.708;23.360;2023-07-31T13:01:31;5.32;;;4.93;;
36191;SDS011;22233;42.708;23.360;2023-07-31T13:03:57;7.00;;;5.32;;
36191;SDS011;22233;42.708;23.360;2023-07-31T13:06:22;5.72;;;5.13;;
36191;SDS011;22233;42.708;23.360;2023-07-31T13:08:48;5.78;;;4.55;;
36191;SDS011;22233;42.708;23.360;2023-07-31T13:11:13;5.15;;;4.70;;
36191;SDS011;22233;42.708;23.360;2023-07-31T13:13:38;5.68;;;4.88;;
36191;SDS011;22233;42.708;23.360;2023-07-31T13:16:04;5.18;;;4.78;;
36191;SDS011;22233;42.708;23.360;2023-07-31T13:18:29;5.32;;;4.82;;
36191;SDS011;22233;42.708;23.360;2023-07-31T13:20:55;5.40;;;4.38;;
36191;SDS011;22233;42.708;23.360;2023-07-31T13:23:20;5.57;;;4.70;;
36191;SDS011;22233;42.708;23.360;2023-07-31T13:25:46;6.07;;;4.80;;
36191;SDS011;22233;42.708;23.360;2023-07-31T13:28:12;5.40;;;4.90;;
36191;SDS011;22233;42.708;23.360;2023-07-31T13:30:37;5.50;;;5.00;;
36191;SDS011;22233;42.708;23.360;2023-07-31T13:33:02;5.15;;;4.60;;
36191;SDS011;22233;42.708;23.360;2023-07-31T13:35:28;4.10;;;3.80;;
36191;SDS011;22233;42.708;23.360;2023-07-31T13:37:56;6.82;;;4.63;;
36191;SDS011;22233;42.708;23.360;2023-07-31T13:40:21;4.78;;;4.28;;
36191;SDS011;22233;42.708;23.360;2023-07-31T13:42:47;4.43;;;4.10;;
36191;SDS011;22233;42.708;23.360;2023-07-31T13:45:13;5.55;;;4.20;;
36191;SDS011;22233;42.708;23.360;2023-07-31T13:47:39;4.40;;;4.03;;
36191;SDS011;22233;42.708;23.360;2023-07-31T13:50:04;4.18;;;3.80;;
36191;SDS011;22233;42.708;23.360;2023-07-31T13:52:30;4.97;;;4.18;;
36191;SDS011;22233;42.708;23.360;2023-07-31T13:54:55;4.32;;;3.92;;
36191;SDS011;22233;42.708;23.360;2023-07-31T13:57:20;3.60;;;3.30;;
36191;SDS011;22233;42.708;23.360;2023-07-31T13:59:46;5.22;;;3.75;;
36191;SDS011;22233;42.708;23.360;2023-07-31T14:02:11;3.75;;;3.45;;
36191;SDS011;22233;42.708;23.360;2023-07-31T14:04:37;6.57;;;3.67;;
36191;SDS011;22233;42.708;23.360;2023-07-31T14:07:02;3.75;;;3.45;;
36191;SDS011;22233;42.708;23.360;2023-07-31T14:09:29;4.57;;;4.20;;
36191;SDS011;22233;42.708;23.360;2023-07-31T14:11:54;4.10;;;3.80;;
36191;SDS011;22233;42.708;23.360;2023-07-31T14:14:20;4.95;;;4.45;;
36191;SDS011;22233;42.708;23.360;2023-07-31T14:16:45;4.18;;;3.78;;
36191;SDS011;22233;42.708;23.360;2023-07-31T14:19:11;4.55;;;4.10;;
36191;SDS011;22233;42.708;23.360;2023-07-31T14:21:36;5.20;;;3.92;;
36191;SDS011;22233;42.708;23.360;2023-07-31T14:24:01;4.35;;;3.60;;
36191;SDS011;22233;42.708;23.360;2023-07-31T14:26:27;4.55;;;4.07;;
36191;SDS011;22233;42.708;23.360;2023-07-31T14:28:52;3.80;;;3.50;;
36191;SDS011;22233;42.708;23.360;2023-07-31T14:31:18;4.93;;;3.30;;
36191;SDS011;22233;42.708;23.360;2023-07-31T14:33:43;4.75;;;3.38;;
36191;SDS011;22233;42.708;23.360;2023-07-31T14:36:08;3.78;;;3.47;;
36191;SDS011;22233;42.708;23.360;2023-07-31T14:38:34;3.70;;;3.30;;
36191;SDS011;22233;42.708;23.360;2023-07-31T14:40:59;8.07;;;3.67;;
36191;SDS011;22233;42.708;23.360;2023-07-31T14:43:25;6.40;;;4.38;;